createdAt,value
2023-01-22T00:03:25.912Z,0.49
2023-01-22T00:08:30.334Z,0.58
2023-01-22T00:13:33.330Z,0.56
2023-01-22T00:18:36.257Z,0.50
2023-01-22T00:23:40.583Z,0.53
2023-01-22T00:28:45.129Z,0.53
2023-01-22T00:33:48.603Z,0.55
2023-01-22T00:38:53.195Z,0.57
2023-01-22T00:43:56.114Z,0.62
2023-01-22T00:48:59.056Z,0.68
2023-01-22T00:54:03.288Z,0.68
2023-01-22T00:59:10.353Z,0.71
2023-01-22T01:04:14.490Z,0.78
2023-01-22T01:09:18.907Z,0.82
2023-01-22T01:14:21.802Z,0.89
2023-01-22T01:19:24.644Z,0.90
2023-01-22T01:24:29.309Z,0.96
2023-01-22T01:29:32.211Z,0.99
2023-01-22T01:34:35.106Z,1.00
2023-01-22T01:39:40.851Z,1.05
2023-01-22T01:44:44.051Z,1.02
2023-01-22T01:49:50.648Z,1.06
2023-01-22T01:54:58.920Z,1.09
2023-01-22T02:00:04.367Z,1.09
2023-01-22T02:05:20.479Z,1.09
2023-01-22T02:10:27.563Z,1.11
2023-01-22T02:15:32.084Z,1.17
2023-01-22T02:20:37.604Z,1.15
2023-01-22T02:25:43.678Z,1.04
2023-01-22T02:30:48.604Z,1.09
2023-01-22T02:35:53.557Z,1.10
2023-01-22T02:40:56.551Z,1.10
2023-01-22T02:45:59.694Z,1.09
2023-01-22T02:51:04.401Z,1.11
2023-01-22T02:56:07.918Z,1.12
2023-01-22T03:01:18.919Z,1.10
2023-01-22T03:06:25.626Z,1.04
2023-01-22T03:11:30.358Z,1.16
2023-01-22T03:16:58.200Z,1.09
2023-01-22T03:22:02.829Z,0.89
2023-01-22T03:27:06.403Z,1.22
2023-01-22T03:32:09.672Z,1.21
2023-01-22T03:37:14.736Z,1.22
2023-01-22T03:42:20.475Z,1.21
2023-01-22T03:47:23.372Z,1.21
2023-01-22T03:52:27.625Z,1.25
2023-01-22T03:57:31.689Z,1.13
2023-01-22T04:02:34.970Z,1.19
2023-01-22T04:07:50.094Z,1.09
2023-01-22T04:12:54.581Z,1.19
2023-01-22T04:17:59.256Z,1.23
2023-01-22T04:23:26.687Z,1.20
2023-01-22T04:28:29.610Z,1.14
2023-01-22T04:33:34.312Z,1.06
2023-01-22T04:38:43.391Z,1.01
2023-01-22T04:43:49.307Z,0.86
2023-01-22T04:48:52.707Z,0.69
2023-01-22T04:53:57.002Z,0.69
2023-01-22T04:59:00.425Z,0.55
2023-01-22T05:04:03.328Z,0.49
2023-01-22T05:09:10.743Z,0.41
2023-01-22T05:14:26.802Z,0.36
2023-01-22T05:19:29.985Z,0.29
2023-01-22T05:24:34.988Z,0.15
2023-01-22T05:30:01.827Z,0.21
2023-01-22T05:35:23.415Z,0.23
2023-01-22T05:40:27.935Z,0.23
2023-01-22T05:45:30.923Z,0.16
2023-01-22T05:51:09.505Z,0.12
2023-01-22T05:56:13.954Z,0.18
2023-01-22T06:01:16.935Z,0.25
2023-01-22T06:06:24.595Z,0.40
2023-01-22T06:11:28.929Z,0.52
2023-01-22T06:16:31.940Z,0.60
2023-01-22T06:21:34.777Z,0.67
2023-01-22T06:26:39.614Z,0.74
2023-01-22T06:31:45.225Z,0.82
2023-01-22T06:36:52.822Z,0.88
2023-01-22T06:41:57.616Z,0.93
2023-01-22T06:47:00.698Z,1.04
2023-01-22T06:52:07.113Z,1.16
2023-01-22T06:57:11.371Z,1.30
2023-01-22T07:02:20.600Z,1.36
2023-01-22T07:07:23.522Z,1.41
2023-01-22T07:12:29.456Z,1.44
2023-01-22T07:17:32.896Z,1.43
2023-01-22T07:22:35.667Z,1.50
2023-01-22T07:27:50.540Z,1.52
2023-01-22T07:32:53.392Z,1.50
2023-01-22T07:37:58.052Z,1.43
2023-01-22T07:43:06.286Z,1.54
2023-01-22T07:53:59.184Z,1.53
2023-01-22T07:59:05.984Z,1.51
2023-01-22T08:04:08.899Z,0.97
2023-01-22T08:09:15.641Z,1.50
2023-01-22T08:14:22.724Z,1.53
2023-01-22T08:19:25.834Z,1.59
2023-01-22T08:24:31.292Z,1.63
2023-01-22T08:29:38.272Z,1.63
2023-01-22T08:34:41.185Z,1.64
2023-01-22T08:39:44.226Z,1.58
2023-01-22T08:44:50.860Z,1.68
2023-01-22T08:49:53.995Z,1.69
2023-01-22T08:54:56.998Z,1.73
2023-01-22T09:00:01.706Z,1.76
2023-01-22T09:05:09.474Z,1.78
2023-01-22T09:10:15.014Z,1.90
2023-01-22T09:15:19.289Z,1.83
2023-01-22T09:20:22.482Z,1.84
2023-01-22T09:25:26.257Z,1.94
2023-01-22T09:30:33.361Z,2.03
2023-01-22T09:35:36.348Z,2.04
2023-01-22T09:40:44.586Z,2.13
2023-01-22T09:45:53.306Z,2.17
2023-01-22T09:50:56.174Z,2.16
2023-01-22T09:55:59.278Z,2.20
2023-01-22T10:01:05.717Z,2.23
2023-01-22T10:06:12.042Z,2.31
2023-01-22T10:11:15.001Z,2.31
2023-01-22T10:16:19.281Z,2.42
2023-01-22T10:21:27.803Z,2.45
2023-01-22T10:26:40.734Z,2.49
2023-01-22T10:31:50.428Z,2.52
2023-01-22T10:36:56.420Z,2.57
2023-01-22T10:42:02.930Z,2.66
2023-01-22T10:47:18.339Z,2.66
2023-01-22T10:52:24.237Z,2.72
2023-01-22T10:57:31.523Z,2.74
2023-01-22T11:02:36.788Z,2.84
2023-01-22T11:07:40.367Z,2.89
2023-01-22T11:12:47.681Z,2.86
2023-01-22T11:17:53.778Z,2.94
2023-01-22T11:28:48.873Z,3.02
2023-01-22T11:34:22.366Z,3.10
2023-01-22T11:39:38.457Z,3.22
2023-01-22T11:44:52.933Z,3.29
2023-01-22T11:50:09.478Z,3.34
2023-01-22T11:55:26.023Z,3.43
2023-01-22T12:00:40.480Z,3.50
2023-01-22T12:05:47.879Z,3.59
2023-01-22T12:11:12.451Z,3.67
2023-01-22T12:16:21.524Z,3.69
2023-01-22T12:21:34.337Z,3.81
2023-01-22T12:26:44.221Z,3.84
2023-01-22T12:31:50.490Z,3.93
2023-01-22T12:36:57.068Z,3.89
2023-01-22T12:42:10.061Z,3.88
2023-01-22T12:47:17.509Z,3.81
2023-01-22T12:52:34.083Z,3.64
2023-01-22T12:57:42.290Z,3.51
2023-01-22T13:02:45.180Z,3.51
2023-01-22T13:07:50.148Z,3.46
2023-01-22T13:12:57.673Z,3.44
2023-01-22T13:18:07.840Z,3.38
2023-01-22T13:23:14.454Z,3.33
2023-01-22T13:28:18.682Z,3.13
2023-01-22T13:33:23.546Z,3.20
2023-01-22T13:38:29.261Z,3.18
2023-01-22T13:43:35.179Z,3.00
2023-01-22T13:48:38.484Z,2.97
2023-01-22T13:53:44.396Z,2.87
2023-01-22T13:58:49.080Z,2.85
2023-01-22T14:03:59.532Z,2.82
2023-01-22T14:09:03.957Z,2.65
2023-01-22T14:14:18.949Z,2.46
2023-01-22T14:19:21.753Z,2.54
2023-01-22T14:24:30.443Z,2.65
2023-01-22T14:29:33.365Z,2.73
2023-01-22T14:34:36.308Z,2.70
2023-01-22T14:39:40.859Z,2.63
2023-01-22T14:44:43.673Z,2.58
2023-01-22T14:49:49.060Z,2.78
2023-01-22T14:54:57.011Z,2.89
2023-01-22T14:59:59.985Z,2.98
2023-01-22T15:05:02.860Z,3.05
2023-01-22T15:10:09.658Z,3.03
2023-01-22T15:15:12.923Z,3.01
2023-01-22T15:20:16.503Z,2.99
2023-01-22T15:25:21.149Z,2.92
2023-01-22T15:30:24.133Z,2.97
2023-01-22T15:35:27.255Z,2.97
2023-01-22T15:40:31.599Z,2.93
2023-01-22T15:45:34.628Z,2.90
2023-01-22T15:50:37.506Z,2.92
2023-01-22T15:55:43.813Z,2.88
2023-01-22T16:00:49.682Z,2.84
2023-01-22T16:05:52.573Z,2.82
2023-01-22T16:10:56.903Z,2.74
2023-01-22T16:16:01.336Z,2.81
2023-01-22T16:21:27.408Z,2.77
2023-01-22T16:26:36.202Z,2.78
2023-01-22T16:31:39.244Z,2.79
2023-01-22T16:36:43.055Z,2.79
2023-01-22T16:41:49.909Z,2.80
2023-01-22T16:46:54.288Z,2.79
2023-01-22T16:51:59.338Z,2.80
2023-01-22T16:57:06.059Z,2.79
2023-01-22T17:02:14.111Z,2.77
2023-01-22T17:07:32.230Z,2.77
2023-01-22T17:12:37.700Z,2.76
2023-01-22T17:17:40.591Z,2.76
2023-01-22T17:22:46.511Z,2.75
2023-01-22T17:27:50.738Z,2.80
2023-01-22T17:32:53.739Z,2.81
2023-01-22T17:37:56.592Z,2.83
2023-01-22T17:43:00.742Z,2.81
2023-01-22T17:48:03.614Z,2.80
2023-01-22T17:53:06.460Z,2.82
2023-01-22T17:58:10.616Z,2.86
2023-01-22T18:03:14.184Z,2.84
2023-01-22T18:08:17.121Z,2.82
2023-01-22T18:13:21.328Z,2.83
2023-01-22T18:18:24.189Z,2.83
2023-01-22T18:23:27.270Z,2.83
2023-01-22T18:28:31.686Z,2.81
2023-01-22T18:33:37.394Z,2.81
2023-01-22T18:38:40.365Z,2.83
2023-01-22T18:43:47.962Z,2.77
2023-01-22T18:48:54.594Z,2.83
2023-01-22T18:53:57.882Z,2.82
2023-01-22T18:59:02.345Z,2.83
2023-01-22T19:04:06.771Z,2.85
2023-01-22T19:09:12.402Z,2.86
2023-01-22T19:14:18.604Z,2.76
2023-01-22T19:19:25.191Z,2.89
2023-01-22T19:24:28.710Z,2.82
2023-01-22T19:29:32.955Z,2.93
2023-01-22T19:34:35.851Z,2.89
2023-01-22T19:39:40.860Z,2.88
2023-01-22T19:44:46.055Z,2.91
2023-01-22T19:49:48.880Z,2.92
2023-01-22T19:54:51.671Z,2.94
2023-01-22T19:59:58.263Z,2.92
2023-01-22T20:05:01.246Z,2.92
2023-01-22T20:10:04.566Z,2.97
2023-01-22T20:15:10.267Z,2.97
2023-01-22T20:20:13.612Z,2.94
2023-01-22T20:25:21.889Z,2.94
2023-01-22T20:30:26.719Z,2.99
2023-01-22T20:35:29.718Z,2.96
2023-01-22T20:40:34.679Z,2.94
2023-01-22T20:45:38.999Z,2.89
2023-01-22T20:50:42.413Z,2.88
2023-01-22T20:55:45.289Z,2.87
2023-01-22T21:00:49.539Z,2.90
2023-01-22T21:05:52.564Z,2.85
2023-01-22T21:10:59.055Z,2.89
2023-01-22T21:16:09.262Z,2.90
2023-01-22T21:21:13.983Z,2.91
2023-01-22T21:26:19.230Z,2.63
2023-01-22T21:31:24.939Z,2.93
2023-01-22T21:36:28.025Z,2.92
2023-01-22T21:41:31.067Z,2.91
2023-01-22T21:46:39.598Z,2.90
2023-01-22T21:51:42.984Z,2.89
2023-01-22T21:56:45.908Z,2.91
2023-01-22T22:01:53.308Z,2.64
2023-01-22T22:06:56.281Z,2.90
2023-01-22T22:12:00.672Z,2.89
2023-01-22T22:17:04.926Z,2.90
2023-01-22T22:22:07.723Z,2.90
2023-01-22T22:27:10.518Z,2.92
2023-01-22T22:32:14.724Z,2.93
2023-01-22T22:37:18.048Z,2.93
2023-01-22T22:42:20.902Z,2.92
2023-01-22T22:47:47.080Z,2.94
2023-01-22T22:52:49.871Z,2.93
2023-01-22T22:57:52.756Z,2.92
2023-01-22T23:02:57.086Z,2.94
2023-01-22T23:07:59.891Z,2.92
2023-01-22T23:13:03.655Z,2.96
2023-01-22T23:18:08.091Z,2.89
2023-01-22T23:23:10.976Z,2.98
2023-01-22T23:28:13.798Z,3.03
2023-01-22T23:33:18.159Z,3.03
2023-01-22T23:38:21.939Z,3.02
2023-01-22T23:43:24.812Z,3.03
2023-01-22T23:48:29.192Z,3.06
2023-01-22T23:53:32.148Z,3.02
2023-01-22T23:58:35.888Z,2.99
